createdAt,value
2019-04-05T00:00:24.144Z,2.50
2019-04-05T00:01:27.358Z,2.87
2019-04-05T00:02:30.583Z,2.73
2019-04-05T00:03:33.946Z,2.93
2019-04-05T00:04:37.503Z,2.73
2019-04-05T00:05:40.864Z,2.80
2019-04-05T00:06:44.219Z,2.80
2019-04-05T00:07:47.482Z,3.30
2019-04-05T00:08:53.760Z,2.80
2019-04-05T00:09:57.060Z,2.73
2019-04-05T00:11:00.267Z,2.67
2019-04-05T00:12:03.574Z,2.53
2019-04-05T00:13:07.154Z,2.60
2019-04-05T00:14:12.207Z,3.23
2019-04-05T00:15:16.160Z,2.70
2019-04-05T00:16:19.590Z,2.70
2019-04-05T00:17:22.831Z,4.10
2019-04-05T00:18:26.126Z,3.20
2019-04-05T00:19:29.447Z,3.97
2019-04-05T00:20:34.427Z,2.80
2019-04-05T00:21:37.647Z,3.13
2019-04-05T00:22:40.863Z,2.70
2019-04-05T00:23:44.082Z,2.73
2019-04-05T00:24:47.294Z,2.90
2019-04-05T00:25:51.351Z,3.03
2019-04-05T00:26:54.559Z,2.53
2019-04-05T00:27:58.150Z,2.50
2019-04-05T00:29:01.444Z,2.60
2019-04-05T00:30:10.671Z,2.90
2019-04-05T00:31:13.958Z,2.33
2019-04-05T00:32:18.013Z,2.67
2019-04-05T00:33:21.311Z,3.00
2019-04-05T00:34:24.519Z,3.33
2019-04-05T00:35:33.924Z,2.80
2019-04-05T00:36:38.910Z,2.70
2019-04-05T00:37:43.040Z,2.90
2019-04-05T00:38:47.046Z,2.60
2019-04-05T00:39:50.377Z,2.60
2019-04-05T00:40:53.723Z,3.00
2019-04-05T00:41:57.015Z,2.43
2019-04-05T00:43:00.496Z,3.03
2019-04-05T00:44:03.779Z,2.90
2019-04-05T00:45:07.092Z,2.97
2019-04-05T00:46:13.329Z,2.70
2019-04-05T00:47:16.803Z,2.33
2019-04-05T00:48:20.018Z,2.33
2019-04-05T00:49:23.311Z,2.80
2019-04-05T00:50:26.527Z,2.60
2019-04-05T00:51:34.547Z,2.50
2019-04-05T00:52:37.756Z,2.70
2019-04-05T00:53:40.978Z,2.90
2019-04-05T00:54:44.187Z,2.70
2019-04-05T00:55:47.402Z,3.20
2019-04-05T00:56:50.614Z,2.80
2019-04-05T00:57:53.835Z,3.13
2019-04-05T00:58:59.679Z,2.60
2019-04-05T01:00:03.686Z,3.27
2019-04-05T01:01:06.895Z,2.70
2019-04-05T01:02:10.178Z,2.27
2019-04-05T01:03:13.433Z,2.50
2019-04-05T01:04:16.763Z,2.83
2019-04-05T01:05:20.055Z,2.80
2019-04-05T01:06:29.250Z,2.80
2019-04-05T01:07:32.833Z,2.77
2019-04-05T01:08:36.113Z,2.40
2019-04-05T01:09:41.091Z,3.17
2019-04-05T01:10:44.643Z,2.80
2019-04-05T01:11:49.698Z,2.27
2019-04-05T01:12:53.751Z,3.10
2019-04-05T01:13:57.843Z,3.00
2019-04-05T01:15:01.335Z,2.70
2019-04-05T01:16:04.550Z,3.80
2019-04-05T01:17:24.446Z,2.80
2019-04-05T01:18:18.955Z,2.77
2019-04-05T01:19:22.319Z,2.60
2019-04-05T01:20:29.031Z,2.40
2019-04-05T01:21:35.503Z,2.67
2019-04-05T01:22:38.760Z,3.20
2019-04-05T01:23:43.643Z,2.80
2019-04-05T01:24:46.859Z,2.20
2019-04-05T01:25:52.933Z,2.67
2019-04-05T01:26:57.915Z,2.60
2019-04-05T01:28:01.214Z,2.70
2019-04-05T01:29:06.995Z,2.70
2019-04-05T01:30:12.146Z,2.40
2019-04-05T01:31:15.692Z,2.43
2019-04-05T01:32:20.671Z,2.50
2019-04-05T01:33:24.816Z,2.50
2019-04-05T01:34:28.107Z,2.50
2019-04-05T01:35:31.319Z,3.00
2019-04-05T01:36:34.603Z,2.80
2019-04-05T01:37:38.163Z,2.80
2019-04-05T01:38:41.467Z,2.73
2019-04-05T01:39:47.411Z,4.13
2019-04-05T01:40:50.643Z,2.50
2019-04-05T01:41:56.891Z,2.60
2019-04-05T01:43:00.171Z,2.90
2019-04-05T01:44:03.390Z,2.47
2019-04-05T01:45:09.999Z,2.87
2019-04-05T01:46:13.527Z,3.00
2019-04-05T01:47:16.735Z,2.63
2019-04-05T01:48:20.295Z,2.93
2019-04-05T01:49:23.631Z,2.50
2019-04-05T01:50:27.583Z,2.70
2019-04-05T01:51:30.831Z,3.13
2019-04-05T01:52:36.215Z,2.73
2019-04-05T01:53:39.424Z,2.90
2019-04-05T01:54:42.780Z,3.07
2019-04-05T01:55:45.987Z,2.50
2019-04-05T01:56:49.199Z,3.13
2019-04-05T01:57:53.314Z,2.93
2019-04-05T01:58:56.867Z,2.77
2019-04-05T02:00:04.355Z,3.13
2019-04-05T02:01:09.634Z,2.57
2019-04-05T02:02:12.944Z,2.90
2019-04-05T02:03:18.003Z,2.70
2019-04-05T02:04:21.782Z,2.40
2019-04-05T02:05:25.007Z,2.40
2019-04-05T02:06:30.059Z,2.50
2019-04-05T02:07:33.443Z,2.63
2019-04-05T02:08:36.735Z,2.93
2019-04-05T02:09:39.950Z,2.73
2019-04-05T02:10:43.167Z,2.73
2019-04-05T02:11:46.370Z,2.87
2019-04-05T02:12:49.689Z,3.57
2019-04-05T02:13:53.239Z,2.33
2019-04-05T02:14:56.527Z,3.30
2019-04-05T02:16:06.658Z,2.43
2019-04-05T02:17:09.639Z,3.10
2019-04-05T02:18:12.863Z,2.90
2019-04-05T02:19:19.297Z,2.50
2019-04-05T02:20:22.507Z,2.80
2019-04-05T02:21:25.730Z,2.80
2019-04-05T02:22:28.932Z,2.70
2019-04-05T02:23:32.225Z,3.03
2019-04-05T02:24:35.911Z,2.40
2019-04-05T02:25:39.127Z,3.10
2019-04-05T02:26:44.183Z,2.47
2019-04-05T02:27:47.450Z,2.40
2019-04-05T02:28:50.734Z,2.60
2019-04-05T02:29:54.015Z,2.70
2019-04-05T02:30:57.690Z,2.60
2019-04-05T02:32:01.246Z,2.63
2019-04-05T02:33:04.857Z,2.33
2019-04-05T02:34:08.070Z,2.70
2019-04-05T02:35:11.289Z,2.80
2019-04-05T02:36:14.575Z,3.00
2019-04-05T02:37:18.072Z,2.60
2019-04-05T02:38:21.360Z,2.60
2019-04-05T02:39:24.631Z,3.33
2019-04-05T02:40:29.692Z,2.57
2019-04-05T02:41:33.043Z,2.37
2019-04-05T02:42:37.873Z,4.17
2019-04-05T02:43:41.160Z,3.03
2019-04-05T02:44:44.382Z,2.73
2019-04-05T02:45:47.940Z,2.43
2019-04-05T02:46:52.255Z,3.10
2019-04-05T02:48:00.394Z,3.10
2019-04-05T02:49:03.627Z,2.80
2019-04-05T02:50:07.212Z,2.40
2019-04-05T02:51:13.072Z,3.13
2019-04-05T02:52:16.281Z,2.60
2019-04-05T02:53:19.489Z,2.50
2019-04-05T02:54:22.780Z,3.07
2019-04-05T02:55:26.143Z,2.73
2019-04-05T02:56:29.683Z,3.60
2019-04-05T02:57:32.878Z,2.80
2019-04-05T02:58:40.541Z,2.47
2019-04-05T02:59:43.760Z,2.40
2019-04-05T03:00:47.055Z,2.50
2019-04-05T03:01:50.289Z,3.37
2019-04-05T03:02:53.589Z,3.17
2019-04-05T03:04:03.240Z,2.70
2019-04-05T03:05:08.290Z,3.80
2019-04-05T03:06:11.515Z,2.70
2019-04-05T03:07:15.342Z,2.87
2019-04-05T03:08:18.631Z,2.77
2019-04-05T03:09:21.911Z,4.00
2019-04-05T03:10:47.203Z,2.53
2019-04-05T03:11:50.403Z,2.63
2019-04-05T03:12:53.683Z,2.63
2019-04-05T03:13:59.610Z,2.83
2019-04-05T03:15:03.067Z,2.93
2019-04-05T03:16:09.543Z,3.90
2019-04-05T03:17:15.769Z,2.87
2019-04-05T03:18:18.978Z,2.67
2019-04-05T03:19:25.450Z,3.33
2019-04-05T03:20:28.746Z,2.70
2019-04-05T03:21:31.960Z,2.80
2019-04-05T03:22:35.172Z,2.30
2019-04-05T03:23:39.795Z,2.77
2019-04-05T03:24:43.679Z,2.67
2019-04-05T03:25:48.756Z,2.73
2019-04-05T03:26:55.367Z,2.90
2019-04-05T03:27:58.971Z,2.63
2019-04-05T03:29:05.687Z,3.07
2019-04-05T03:30:08.912Z,3.57
2019-04-05T03:31:12.409Z,2.70
2019-04-05T03:32:15.738Z,3.20
2019-04-05T03:33:19.190Z,2.90
2019-04-05T03:34:22.687Z,2.70
2019-04-05T03:35:26.000Z,2.80
2019-04-05T03:36:29.263Z,2.80
2019-04-05T03:37:32.544Z,2.83
2019-04-05T03:38:37.520Z,2.60
2019-04-05T03:39:41.312Z,3.07
2019-04-05T03:40:46.370Z,3.40
2019-04-05T03:41:49.590Z,2.77
2019-04-05T03:42:52.943Z,3.13
2019-04-05T03:43:56.159Z,2.50
2019-04-05T03:44:59.729Z,2.80
2019-04-05T03:46:04.726Z,2.70
2019-04-05T03:47:08.029Z,2.60
2019-04-05T03:48:12.194Z,2.57
2019-04-05T03:49:15.408Z,2.67
2019-04-05T03:50:18.886Z,2.70
2019-04-05T03:51:24.944Z,3.23
2019-04-05T03:52:28.156Z,3.07
2019-04-05T03:53:31.445Z,3.20
2019-04-05T03:54:37.376Z,3.63
2019-04-05T03:55:40.624Z,2.70
2019-04-05T03:56:44.233Z,2.77
2019-04-05T03:57:47.467Z,3.20
2019-04-05T03:58:53.525Z,2.80
2019-04-05T04:00:01.472Z,3.47
2019-04-05T04:01:08.276Z,3.10
2019-04-05T04:02:11.501Z,3.00
2019-04-05T04:03:15.309Z,3.30
2019-04-05T04:04:18.582Z,2.70
2019-04-05T04:05:22.056Z,3.60
2019-04-05T04:06:28.460Z,2.63
2019-04-05T04:07:31.744Z,2.60
2019-04-05T04:08:34.964Z,3.20
2019-04-05T04:09:38.171Z,4.40
2019-04-05T04:10:41.476Z,2.80
2019-04-05T04:11:44.696Z,2.70
2019-04-05T04:12:48.354Z,3.63
2019-04-05T04:13:53.407Z,2.90
2019-04-05T04:14:56.644Z,2.73
2019-04-05T04:16:01.633Z,3.07
2019-04-05T04:17:12.729Z,2.97
2019-04-05T04:18:10.165Z,2.90
2019-04-05T04:19:15.144Z,2.87
2019-04-05T04:20:33.429Z,2.70
2019-04-05T04:21:52.003Z,2.57
2019-04-05T04:22:55.207Z,3.37
2019-04-05T04:23:58.495Z,3.00
2019-04-05T04:25:02.052Z,2.67
2019-04-05T04:26:05.628Z,2.57
2019-04-05T04:27:10.617Z,3.00
2019-04-05T04:28:13.907Z,2.83
2019-04-05T04:29:17.428Z,2.97
2019-04-05T04:30:21.493Z,2.73
2019-04-05T04:31:25.032Z,3.50
2019-04-05T04:32:31.039Z,3.30
2019-04-05T04:33:34.483Z,3.00
2019-04-05T04:34:37.706Z,3.33
2019-04-05T04:35:41.320Z,2.80
2019-04-05T04:36:44.540Z,3.03
2019-04-05T04:37:49.526Z,2.93
2019-04-05T04:38:52.768Z,3.03
2019-04-05T04:39:58.775Z,3.17
2019-04-05T04:41:02.341Z,3.10
2019-04-05T04:42:05.640Z,2.47
2019-04-05T04:43:13.953Z,3.47
2019-04-05T04:44:17.163Z,2.80
2019-04-05T04:45:20.375Z,2.90
2019-04-05T04:46:24.469Z,3.10
2019-04-05T04:47:27.699Z,3.07
2019-04-05T04:48:31.143Z,3.67
2019-04-05T04:49:34.667Z,2.90
2019-04-05T04:50:43.814Z,3.20
2019-04-05T04:51:47.177Z,3.13
2019-04-05T04:52:50.796Z,4.70
2019-04-05T04:53:55.831Z,3.60
2019-04-05T04:54:59.098Z,3.23
2019-04-05T04:56:02.383Z,3.47
2019-04-05T04:57:06.044Z,4.83
2019-04-05T04:58:09.255Z,2.43
2019-04-05T04:59:12.460Z,2.27
2019-04-05T05:00:15.685Z,3.00
2019-04-05T05:01:19.426Z,2.97
2019-04-05T05:02:23.011Z,3.17
2019-04-05T05:03:27.995Z,2.80
2019-04-05T05:04:31.209Z,2.60
2019-04-05T05:05:34.423Z,2.77
2019-04-05T05:06:37.636Z,3.50
2019-04-05T05:07:41.119Z,2.60
2019-04-05T05:08:46.103Z,2.90
2019-04-05T05:09:49.343Z,3.33
2019-04-05T05:10:52.636Z,3.30
2019-04-05T05:11:55.898Z,2.67
2019-04-05T05:12:59.724Z,2.90
2019-04-05T05:14:02.983Z,3.07
2019-04-05T05:15:08.819Z,2.87
2019-04-05T05:16:16.459Z,2.57
2019-04-05T05:17:19.683Z,3.37
2019-04-05T05:18:22.894Z,2.80
2019-04-05T05:19:26.459Z,3.03
2019-04-05T05:20:29.662Z,2.70
2019-04-05T05:21:38.660Z,2.40
2019-04-05T05:22:42.143Z,3.27
2019-04-05T05:23:45.658Z,3.00
2019-04-05T05:24:51.855Z,3.07
2019-04-05T05:25:55.149Z,2.90
2019-04-05T05:26:59.355Z,2.90
2019-04-05T05:28:04.391Z,3.07
2019-04-05T05:29:07.616Z,3.43
2019-04-05T05:30:12.483Z,2.93
2019-04-05T05:31:15.695Z,2.97
2019-04-05T05:32:19.766Z,2.80
2019-04-05T05:33:25.015Z,3.10
2019-04-05T05:34:28.287Z,3.27
2019-04-05T05:35:33.339Z,2.93
2019-04-05T05:36:37.408Z,2.83
2019-04-05T05:37:40.640Z,2.70
2019-04-05T05:38:45.962Z,3.73
2019-04-05T05:39:49.343Z,3.23
2019-04-05T05:40:52.915Z,3.13
2019-04-05T05:41:56.407Z,3.10
2019-04-05T05:42:59.631Z,2.80
2019-04-05T05:44:02.847Z,3.50
2019-04-05T05:45:06.995Z,2.97
2019-04-05T05:46:13.844Z,2.80
2019-04-05T05:47:17.091Z,3.73
2019-04-05T05:48:22.995Z,3.07
2019-04-05T05:49:26.211Z,3.07
2019-04-05T05:50:29.435Z,3.60
2019-04-05T05:51:34.490Z,3.20
2019-04-05T05:52:37.721Z,2.50
2019-04-05T05:53:43.939Z,3.50
2019-04-05T05:54:47.419Z,3.20
2019-04-05T05:55:51.007Z,3.43
2019-04-05T05:56:55.835Z,3.33
2019-04-05T05:57:59.056Z,3.00
2019-04-05T05:59:02.341Z,2.90
2019-04-05T06:00:07.994Z,2.60
2019-04-05T06:01:11.527Z,2.77
2019-04-05T06:02:15.420Z,3.33
2019-04-05T06:03:19.471Z,3.20
2019-04-05T06:04:22.959Z,3.07
2019-04-05T06:05:27.934Z,4.00
2019-04-05T06:06:31.311Z,3.33
2019-04-05T06:07:36.382Z,2.80
2019-04-05T06:08:40.498Z,3.93
2019-04-05T06:09:43.725Z,2.43
2019-04-05T06:10:47.017Z,3.70
2019-04-05T06:11:50.593Z,3.10
2019-04-05T06:12:53.811Z,3.30
2019-04-05T06:13:57.027Z,2.83
2019-04-05T06:15:05.015Z,2.93
2019-04-05T06:16:09.219Z,3.33
2019-04-05T06:17:12.431Z,3.80
2019-04-05T06:18:15.643Z,3.37
2019-04-05T06:19:18.910Z,3.00
2019-04-05T06:20:22.119Z,3.07
2019-04-05T06:21:26.847Z,3.73
2019-04-05T06:22:30.060Z,2.80
2019-04-05T06:23:34.258Z,3.67
2019-04-05T06:24:40.432Z,5.03
2019-04-05T06:25:43.929Z,17.03
2019-04-05T06:26:47.503Z,36.40
2019-04-05T06:27:52.498Z,34.03
2019-04-05T06:28:55.739Z,34.30
2019-04-05T06:30:02.171Z,34.93
2019-04-05T06:31:05.403Z,49.37
2019-04-05T06:32:09.045Z,34.50
2019-04-05T06:33:13.227Z,41.27
2019-04-05T06:34:16.543Z,34.53
2019-04-05T06:35:20.027Z,43.40
2019-04-05T06:36:23.247Z,32.30
2019-04-05T06:37:26.479Z,35.93
2019-04-05T06:38:29.846Z,33.93
2019-04-05T06:39:33.064Z,36.37
2019-04-05T06:40:41.149Z,36.10
2019-04-05T06:41:41.330Z,39.03
2019-04-05T06:42:44.615Z,30.10
2019-04-05T06:43:47.871Z,42.23
2019-04-05T06:44:52.114Z,37.97
2019-04-05T06:45:55.457Z,45.43
2019-04-05T06:46:58.859Z,60.43
2019-04-05T06:48:02.151Z,62.17
2019-04-05T06:49:05.473Z,61.50
2019-04-05T06:50:09.062Z,51.73
2019-04-05T06:51:12.355Z,95.93
2019-04-05T06:52:15.610Z,111.70
2019-04-05T06:53:21.930Z,104.33
2019-04-05T06:54:25.285Z,107.93
2019-04-05T06:55:30.274Z,106.10
2019-04-05T06:56:33.517Z,104.03
2019-04-05T06:57:36.998Z,111.33
2019-04-05T06:58:42.434Z,107.85
2019-04-05T06:59:45.707Z,115.37
2019-04-05T07:00:56.897Z,115.50
2019-04-05T07:01:55.859Z,121.25
2019-04-05T07:02:59.419Z,104.70
2019-04-05T07:04:05.860Z,124.20
2019-04-05T07:05:09.360Z,107.07
2019-04-05T07:06:12.866Z,118.08
2019-04-05T07:07:17.887Z,119.15
2019-04-05T07:08:21.699Z,117.33
2019-04-05T07:09:25.202Z,110.55
2019-04-05T07:10:30.476Z,107.25
2019-04-05T07:11:33.979Z,130.15
2019-04-05T07:12:38.527Z,112.42
2019-04-05T07:13:42.035Z,122.37
2019-04-05T07:14:47.627Z,119.08
2019-04-05T07:15:51.225Z,125.42
2019-04-05T07:16:56.599Z,119.28
2019-04-05T07:18:00.099Z,124.20
2019-04-05T07:19:03.606Z,126.10
2019-04-05T07:20:08.875Z,127.40
2019-04-05T07:21:12.377Z,113.68
2019-04-05T07:22:33.474Z,123.60
2019-04-05T07:23:27.282Z,108.97
2019-04-05T07:24:30.837Z,121.67
2019-04-05T07:25:36.879Z,117.97
2019-04-05T07:26:40.451Z,112.22
2019-04-05T07:27:44.620Z,117.08
2019-04-05T07:28:48.131Z,117.65
2019-04-05T07:29:51.630Z,120.20
2019-04-05T07:30:57.260Z,127.85
2019-04-05T07:32:00.762Z,115.37
2019-04-05T07:33:05.927Z,116.70
2019-04-05T07:34:09.891Z,120.65
2019-04-05T07:35:13.777Z,124.97
2019-04-05T07:36:17.339Z,130.60
2019-04-05T07:37:21.033Z,121.55
2019-04-05T07:38:24.521Z,132.22
2019-04-05T07:39:28.023Z,158.63
2019-04-05T07:40:31.530Z,134.00
2019-04-05T07:41:35.030Z,143.32
2019-04-05T07:42:38.598Z,133.05
2019-04-05T07:43:43.870Z,135.65
2019-04-05T07:44:47.439Z,138.05
2019-04-05T07:45:51.043Z,144.20
2019-04-05T07:46:56.312Z,129.57
2019-04-05T07:48:01.360Z,141.12
2019-04-05T07:49:04.906Z,133.55
2019-04-05T07:50:08.470Z,154.75
2019-04-05T07:51:12.046Z,136.90
2019-04-05T07:52:15.542Z,138.10
2019-04-05T07:53:24.699Z,147.13
2019-04-05T07:54:28.196Z,137.90
2019-04-05T07:55:32.031Z,143.17
2019-04-05T07:56:37.302Z,136.35
2019-04-05T07:57:40.809Z,131.25
2019-04-05T07:58:44.295Z,128.25
2019-04-05T07:59:47.875Z,136.00
2019-04-05T08:00:53.083Z,137.18
2019-04-05T08:01:56.579Z,128.93
2019-04-05T08:03:00.079Z,146.35
2019-04-05T08:04:03.681Z,140.07
2019-04-05T08:05:10.032Z,142.07
2019-04-05T08:06:13.518Z,167.32
2019-04-05T08:07:17.016Z,146.43
2019-04-05T08:08:38.670Z,115.10
2019-04-05T08:09:42.298Z,112.83
2019-04-05T08:10:45.893Z,108.20
2019-04-05T08:11:49.487Z,110.55
2019-04-05T08:12:53.060Z,95.87
2019-04-05T08:13:57.546Z,97.80
2019-04-05T08:15:00.827Z,96.47
2019-04-05T08:16:04.041Z,99.03
2019-04-05T08:17:07.675Z,92.30
2019-04-05T08:18:11.644Z,98.85
2019-04-05T08:19:15.129Z,90.10
2019-04-05T08:20:19.586Z,96.65
2019-04-05T08:21:22.815Z,92.13
2019-04-05T08:22:26.152Z,89.10
2019-04-05T08:23:29.712Z,97.60
2019-04-05T08:24:33.256Z,93.77
2019-04-05T08:25:36.472Z,102.10
2019-04-05T08:26:39.762Z,95.57
2019-04-05T08:27:46.012Z,90.43
2019-04-05T08:28:49.223Z,93.03
2019-04-05T08:29:52.535Z,104.77
2019-04-05T08:30:55.846Z,91.73
2019-04-05T08:32:13.867Z,101.73
2019-04-05T08:33:07.903Z,88.50
2019-04-05T08:34:11.124Z,89.13
2019-04-05T08:35:20.028Z,89.47
2019-04-05T08:36:23.247Z,82.03
2019-04-05T08:37:26.464Z,87.00
2019-04-05T08:38:33.162Z,85.53
2019-04-05T08:39:37.124Z,78.90
2019-04-05T08:40:40.676Z,78.57
2019-04-05T08:41:45.787Z,92.50
2019-04-05T08:42:49.010Z,77.57
2019-04-05T08:43:52.366Z,79.50
2019-04-05T08:44:55.593Z,78.23
2019-04-05T08:45:59.291Z,84.20
2019-04-05T08:47:02.572Z,80.77
2019-04-05T08:48:05.866Z,76.80
2019-04-05T08:49:11.458Z,84.07
2019-04-05T08:50:14.002Z,69.97
2019-04-05T08:51:17.242Z,75.07
2019-04-05T08:52:20.809Z,81.67
2019-04-05T08:53:24.691Z,76.77
2019-04-05T08:54:32.697Z,72.93
2019-04-05T08:55:33.325Z,73.17
2019-04-05T08:56:36.614Z,71.93
2019-04-05T08:57:40.138Z,74.77
2019-04-05T08:58:44.322Z,76.97
2019-04-05T08:59:47.856Z,77.07
2019-04-05T09:00:51.084Z,72.57
2019-04-05T09:01:54.367Z,73.93
2019-04-05T09:02:57.784Z,84.93
2019-04-05T09:04:01.228Z,73.27
2019-04-05T09:05:07.395Z,68.07
2019-04-05T09:06:10.616Z,74.97
2019-04-05T09:07:13.899Z,75.73
2019-04-05T09:08:17.277Z,72.03
2019-04-05T09:09:20.563Z,70.23
2019-04-05T09:10:25.646Z,73.03
2019-04-05T09:11:29.278Z,85.40
2019-04-05T09:12:32.589Z,74.37
2019-04-05T09:13:35.884Z,70.70
2019-04-05T09:14:39.168Z,72.30
2019-04-05T09:15:43.563Z,68.30
2019-04-05T09:16:46.887Z,71.87
2019-04-05T09:17:50.210Z,78.10
2019-04-05T09:18:53.510Z,75.87
2019-04-05T09:19:59.415Z,73.07
2019-04-05T09:21:02.720Z,79.83
2019-04-05T09:22:08.795Z,73.63
2019-04-05T09:23:12.090Z,81.37
2019-04-05T09:24:15.306Z,75.70
2019-04-05T09:25:19.870Z,75.70
2019-04-05T09:26:23.487Z,73.00
2019-04-05T09:27:26.775Z,66.50
2019-04-05T09:28:30.138Z,69.00
2019-04-05T09:29:34.294Z,69.33
2019-04-05T09:30:43.952Z,78.27
2019-04-05T09:31:47.338Z,71.73
2019-04-05T09:32:50.556Z,72.37
2019-04-05T09:33:54.704Z,77.17
2019-04-05T09:34:57.998Z,74.63
2019-04-05T09:36:02.991Z,65.27
2019-04-05T09:37:06.267Z,74.03
2019-04-05T09:38:12.605Z,77.43
2019-04-05T09:39:16.021Z,75.97
2019-04-05T09:40:21.210Z,67.77
2019-04-05T09:41:24.345Z,74.90
2019-04-05T09:42:27.567Z,65.77
2019-04-05T09:43:30.840Z,74.63
2019-04-05T09:44:34.054Z,71.00
2019-04-05T09:45:38.520Z,74.07
2019-04-05T09:46:47.198Z,69.03
2019-04-05T09:47:48.499Z,75.73
2019-04-05T09:48:51.770Z,67.60
2019-04-05T09:49:54.991Z,68.73
2019-04-05T09:50:58.257Z,68.30
2019-04-05T09:52:04.190Z,72.63
2019-04-05T09:53:07.424Z,68.83
2019-04-05T09:54:13.567Z,66.93
2019-04-05T09:55:16.791Z,71.67
2019-04-05T09:56:20.019Z,63.07
2019-04-05T09:57:23.239Z,68.20
2019-04-05T09:58:26.452Z,74.83
2019-04-05T09:59:29.679Z,64.77
2019-04-05T10:00:33.196Z,66.30
2019-04-05T10:01:36.699Z,60.50
2019-04-05T10:02:39.991Z,64.87
2019-04-05T10:03:43.209Z,72.80
2019-04-05T10:04:49.519Z,63.40
2019-04-05T10:05:52.802Z,64.30
2019-04-05T10:06:56.392Z,68.37
2019-04-05T10:07:59.661Z,73.63
2019-04-05T10:09:06.747Z,71.80
2019-04-05T10:10:09.959Z,66.00
2019-04-05T10:11:13.194Z,72.43
2019-04-05T10:12:16.475Z,70.87
2019-04-05T10:13:19.687Z,63.90
2019-04-05T10:14:22.907Z,71.20
2019-04-05T10:15:26.125Z,69.73
2019-04-05T10:16:29.405Z,67.07
2019-04-05T10:17:35.595Z,69.57
2019-04-05T10:18:40.651Z,67.67
2019-04-05T10:19:49.756Z,63.43
2019-04-05T10:20:51.567Z,65.50
2019-04-05T10:21:55.644Z,68.63
2019-04-05T10:22:58.932Z,66.73
2019-04-05T10:24:02.178Z,66.50
2019-04-05T10:25:08.874Z,66.60
2019-04-05T10:26:12.103Z,69.03
2019-04-05T10:27:15.331Z,76.43
2019-04-05T10:28:18.570Z,70.20
2019-04-05T10:29:23.975Z,69.50
2019-04-05T10:30:27.275Z,75.07
2019-04-05T10:31:33.258Z,67.43
2019-04-05T10:32:36.563Z,68.67
2019-04-05T10:33:39.784Z,70.77
2019-04-05T10:34:43.447Z,70.53
2019-04-05T10:35:46.710Z,68.53
2019-04-05T10:36:49.939Z,69.73
2019-04-05T10:37:53.154Z,74.43
2019-04-05T10:38:56.723Z,66.90
2019-04-05T10:39:59.942Z,64.70
2019-04-05T10:41:03.407Z,72.00
2019-04-05T10:42:16.544Z,72.30
2019-04-05T10:43:22.179Z,69.10
2019-04-05T10:44:25.395Z,72.60
2019-04-05T10:45:29.070Z,72.40
2019-04-05T10:46:32.300Z,67.17
2019-04-05T10:47:35.667Z,63.33
2019-04-05T10:48:38.983Z,65.80
2019-04-05T10:49:42.368Z,59.63
2019-04-05T10:50:48.155Z,72.07
2019-04-05T10:51:51.391Z,71.20
2019-04-05T10:52:54.612Z,68.50
2019-04-05T10:53:57.891Z,71.20
2019-04-05T10:55:01.161Z,68.20
2019-04-05T10:56:04.554Z,71.40
2019-04-05T10:57:08.095Z,63.27
2019-04-05T10:58:16.775Z,69.20
2019-04-05T10:59:20.111Z,67.40
2019-04-05T11:00:24.007Z,72.17
2019-04-05T11:01:27.247Z,69.80
2019-04-05T11:02:30.560Z,61.93
2019-04-05T11:03:36.638Z,75.17
2019-04-05T11:04:39.939Z,62.33
2019-04-05T11:05:44.778Z,66.30
2019-04-05T11:06:48.012Z,60.63
2019-04-05T11:07:53.690Z,65.80
2019-04-05T11:08:56.907Z,68.33
2019-04-05T11:10:00.198Z,66.13
2019-04-05T11:11:03.429Z,66.13
2019-04-05T11:12:08.670Z,63.30
2019-04-05T11:13:11.980Z,62.17
2019-04-05T11:14:15.603Z,68.70
2019-04-05T11:15:18.855Z,70.67
2019-04-05T11:16:24.054Z,67.10
2019-04-05T11:17:27.294Z,62.37
2019-04-05T11:18:32.824Z,66.03
2019-04-05T11:19:36.450Z,64.17
2019-04-05T11:20:40.414Z,64.80
2019-04-05T11:21:43.656Z,61.90
2019-04-05T11:22:49.234Z,61.37
2019-04-05T11:23:53.622Z,64.13
2019-04-05T11:24:57.717Z,70.27
2019-04-05T11:26:02.703Z,62.10
2019-04-05T11:27:06.856Z,65.20
2019-04-05T11:28:11.930Z,64.10
2019-04-05T11:29:15.302Z,65.17
2019-04-05T11:30:36.559Z,63.63
2019-04-05T11:31:39.796Z,58.50
2019-04-05T11:32:43.095Z,68.60
2019-04-05T11:33:46.739Z,68.90
2019-04-05T11:34:49.987Z,68.10
2019-04-05T11:35:53.375Z,63.00
2019-04-05T11:36:56.899Z,65.30
2019-04-05T11:38:00.122Z,71.80
2019-04-05T11:39:07.898Z,64.40
2019-04-05T11:40:12.282Z,66.27
2019-04-05T11:41:15.495Z,67.43
2019-04-05T11:42:19.567Z,66.10
2019-04-05T11:43:26.160Z,59.90
2019-04-05T11:44:27.886Z,65.90
2019-04-05T11:45:33.822Z,66.70
2019-04-05T11:46:37.113Z,65.40
2019-04-05T11:47:42.491Z,65.80
2019-04-05T11:48:45.971Z,69.87
2019-04-05T11:49:49.226Z,69.97
2019-04-05T11:50:52.528Z,63.70
2019-04-05T11:51:55.891Z,68.40
2019-04-05T11:52:59.143Z,77.40
2019-04-05T11:54:05.038Z,64.13
2019-04-05T11:55:08.420Z,68.23
2019-04-05T11:56:14.789Z,66.30
2019-04-05T11:57:16.758Z,72.63
2019-04-05T11:58:20.000Z,65.47
2019-04-05T11:59:23.225Z,61.97
2019-04-05T12:00:26.779Z,61.90
2019-04-05T12:01:30.471Z,68.40
2019-04-05T12:02:33.734Z,61.43
2019-04-05T12:03:39.879Z,65.20
2019-04-05T12:04:43.376Z,59.93
2019-04-05T12:05:48.359Z,67.53
2019-04-05T12:06:52.187Z,64.70
2019-04-05T12:08:00.691Z,64.90
2019-04-05T12:09:07.280Z,71.10
2019-04-05T12:10:10.504Z,68.63
2019-04-05T12:11:13.720Z,65.43
2019-04-05T12:12:16.984Z,61.63
2019-04-05T12:13:22.027Z,62.03
2019-04-05T12:14:30.464Z,66.43
2019-04-05T12:15:30.152Z,58.70
2019-04-05T12:16:35.977Z,62.57
2019-04-05T12:17:38.331Z,70.27
2019-04-05T12:18:41.703Z,56.50
2019-04-05T12:19:47.718Z,60.90
2019-04-05T12:20:59.591Z,61.83
2019-04-05T12:21:57.666Z,70.77
2019-04-05T12:23:00.924Z,78.90
2019-04-05T12:24:04.231Z,66.43
2019-04-05T12:25:07.554Z,69.77
2019-04-05T12:26:11.296Z,82.93
2019-04-05T12:27:14.534Z,91.03
2019-04-05T12:28:19.673Z,82.13
2019-04-05T12:29:22.998Z,83.67
2019-04-05T12:30:29.238Z,84.57
2019-04-05T12:31:32.455Z,79.37
2019-04-05T12:32:41.125Z,84.60
2019-04-05T12:33:46.640Z,78.17
2019-04-05T12:34:49.483Z,75.40
2019-04-05T12:35:56.689Z,74.37
2019-04-05T12:36:58.818Z,83.73
2019-04-05T12:38:06.974Z,71.13
2019-04-05T12:39:09.923Z,75.77
2019-04-05T12:40:14.906Z,75.77
2019-04-05T12:41:18.489Z,73.67
2019-04-05T12:42:21.898Z,76.57
2019-04-05T12:43:27.912Z,89.93
2019-04-05T12:44:31.459Z,75.67
2019-04-05T12:45:34.748Z,79.60
2019-04-05T12:46:37.962Z,78.83
2019-04-05T12:47:41.175Z,79.50
2019-04-05T12:48:46.236Z,73.57
2019-04-05T12:49:49.435Z,79.20
2019-04-05T12:51:01.134Z,85.03
2019-04-05T12:51:57.642Z,84.17
2019-04-05T12:53:00.862Z,85.70
2019-04-05T12:54:04.085Z,86.83
2019-04-05T12:55:07.695Z,76.77
2019-04-05T12:56:13.574Z,81.70
2019-04-05T12:57:16.799Z,78.83
2019-04-05T12:58:21.575Z,78.97
2019-04-05T12:59:26.455Z,76.43
2019-04-05T13:00:32.779Z,69.33
2019-04-05T13:01:36.068Z,66.53
2019-04-05T13:02:39.346Z,68.53
2019-04-05T13:03:42.612Z,77.27
2019-04-05T13:04:50.125Z,70.10
2019-04-05T13:05:53.471Z,66.87
2019-04-05T13:06:56.718Z,69.43
2019-04-05T13:08:00.310Z,65.73
2019-04-05T13:09:07.245Z,66.10
2019-04-05T13:10:16.488Z,67.03
2019-04-05T13:11:19.967Z,72.07
2019-04-05T13:12:26.961Z,66.27
2019-04-05T13:13:30.460Z,71.13
2019-04-05T13:14:33.738Z,65.83
2019-04-05T13:15:40.231Z,65.40
2019-04-05T13:16:43.677Z,75.53
2019-04-05T13:17:48.850Z,66.57
2019-04-05T13:18:52.480Z,68.30
2019-04-05T13:19:55.770Z,61.20
2019-04-05T13:21:14.002Z,69.03
2019-04-05T13:22:06.650Z,68.57
2019-04-05T13:23:11.641Z,71.10
2019-04-05T13:24:14.871Z,66.30
2019-04-05T13:25:22.850Z,69.37
2019-04-05T13:26:26.432Z,65.20
2019-04-05T13:27:29.836Z,67.30
2019-04-05T13:28:33.134Z,61.43
2019-04-05T13:29:36.394Z,65.17
2019-04-05T13:30:40.361Z,67.17
2019-04-05T13:31:43.631Z,64.60
2019-04-05T13:32:46.881Z,63.80
2019-04-05T13:33:54.372Z,65.43
2019-04-05T13:34:55.868Z,61.47
2019-04-05T13:35:59.790Z,63.40
2019-04-05T13:37:03.015Z,65.23
2019-04-05T13:38:06.223Z,66.10
2019-04-05T13:39:09.447Z,62.73
2019-04-05T13:40:15.336Z,61.87
2019-04-05T13:41:19.191Z,68.63
2019-04-05T13:42:22.548Z,62.53
2019-04-05T13:43:25.800Z,58.93
2019-04-05T13:44:31.593Z,71.80
2019-04-05T13:45:34.455Z,65.80
2019-04-05T13:46:42.689Z,65.53
2019-04-05T13:47:51.151Z,62.20
2019-04-05T13:48:56.131Z,70.87
2019-04-05T13:49:59.358Z,61.47
2019-04-05T13:51:07.068Z,60.37
2019-04-05T13:52:11.158Z,60.73
2019-04-05T13:53:14.214Z,69.03
2019-04-05T13:54:17.435Z,70.90
2019-04-05T13:55:22.575Z,63.23
2019-04-05T13:56:26.358Z,65.33